Miles, Texas
Current Conditions -  °F | °C
As of 3:51 AM on Thursday 23 Oct 2014 (Local Time) from KSJT Reporting Station
Overcast Overcast  
Wind Chill: 57°   Ceiling: 7500
Heat Index: 57°   Visibility: 10mi
Dew Point: 54°   Wind: 3mph
Humidity: 89%   Direction: 170°S
Pressure: 30.12"   Gusts: NA
Location:  31.6°N, 100.18°W
Report Text: KSJT 230851Z AUTO 17003KT 10SM OVC075 14/12 A3012 RMK AO2 SLP188 T01390122 53001
Loading
Personal Weather Stations






























Interactive Weather Map
Tropical Storm Tracking
New forecast layout! Learn more

10-Day Weather Forecast

Advertisements
Track Severe Weather on mobile